sensor_id;sensor_type;location;lat;lon;timestamp;P1;durP1;ratioP1;P2;durP2;ratioP2
15608;SDS011;64278;45.642;13.756;2023-02-03T00:56:36;14.85;;;13.57;;
15608;SDS011;64278;45.642;13.756;2023-02-03T00:59:01;13.77;;;12.57;;
15608;SDS011;64278;45.642;13.756;2023-02-03T01:01:27;15.13;;;13.73;;
15608;SDS011;64278;45.642;13.756;2023-02-03T01:03:53;14.45;;;13.20;;
15608;SDS011;64278;45.642;13.756;2023-02-03T01:06:21;14.32;;;13.13;;
15608;SDS011;64278;45.642;13.756;2023-02-03T01:08:47;14.05;;;12.73;;
15608;SDS011;64278;45.642;13.756;2023-02-03T01:11:15;14.18;;;12.88;;
15608;SDS011;64278;45.642;13.756;2023-02-03T01:13:45;13.60;;;12.38;;
15608;SDS011;64278;45.642;13.756;2023-02-03T01:16:11;14.32;;;13.00;;
15608;SDS011;64278;45.642;13.756;2023-02-03T01:18:38;14.65;;;13.35;;
15608;SDS011;64278;45.642;13.756;2023-02-03T01:21:05;14.07;;;12.75;;
15608;SDS011;64278;45.642;13.756;2023-02-03T01:23:32;14.32;;;13.05;;
15608;SDS011;64278;45.642;13.756;2023-02-03T01:26:03;14.00;;;12.73;;
15608;SDS011;64278;45.642;13.756;2023-02-03T01:28:30;13.00;;;11.90;;
15608;SDS011;64278;45.642;13.756;2023-02-03T01:30:56;13.43;;;12.10;;
15608;SDS011;64278;45.642;13.756;2023-02-03T01:33:22;12.70;;;11.60;;
15608;SDS011;64278;45.642;13.756;2023-02-03T01:35:47;11.93;;;10.93;;
15608;SDS011;64278;45.642;13.756;2023-02-03T01:38:13;12.02;;;10.93;;
15608;SDS011;64278;45.642;13.756;2023-02-03T01:40:42;12.52;;;11.50;;
15608;SDS011;64278;45.642;13.756;2023-02-03T01:43:09;13.55;;;12.40;;
15608;SDS011;64278;45.642;13.756;2023-02-03T01:45:35;11.75;;;10.75;;
15608;SDS011;64278;45.642;13.756;2023-02-03T01:48:01;11.98;;;10.98;;
15608;SDS011;64278;45.642;13.756;2023-02-03T01:50:31;12.70;;;11.63;;
15608;SDS011;64278;45.642;13.756;2023-02-03T01:53:00;11.90;;;10.85;;
15608;SDS011;64278;45.642;13.756;2023-02-03T01:55:32;11.20;;;10.20;;
15608;SDS011;64278;45.642;13.756;2023-02-03T01:58:02;11.20;;;10.20;;
15608;SDS011;64278;45.642;13.756;2023-02-03T02:00:44;11.43;;;10.52;;
15608;SDS011;64278;45.642;13.756;2023-02-03T02:03:10;11.70;;;10.70;;
15608;SDS011;64278;45.642;13.756;2023-02-03T02:05:39;11.40;;;10.50;;
15608;SDS011;64278;45.642;13.756;2023-02-03T02:08:07;10.60;;;9.80;;
15608;SDS011;64278;45.642;13.756;2023-02-03T02:10:33;11.30;;;10.30;;
15608;SDS011;64278;45.642;13.756;2023-02-03T02:12:59;11.13;;;10.10;;
15608;SDS011;64278;45.642;13.756;2023-02-03T02:18:21;10.93;;;9.85;;
15608;SDS011;64278;45.642;13.756;2023-02-03T02:32:33;9.93;;;9.02;;
15608;SDS011;64278;45.642;13.756;2023-02-03T02:38:08;9.35;;;8.55;;
15608;SDS011;64278;45.642;13.756;2023-02-03T02:42:59;10.00;;;9.13;;
15608;SDS011;64278;45.642;13.756;2023-02-03T02:45:31;9.57;;;8.70;;
15608;SDS011;64278;45.642;13.756;2023-02-03T02:48:07;9.93;;;9.13;;
15608;SDS011;64278;45.642;13.756;2023-02-03T02:50:40;9.65;;;8.95;;
15608;SDS011;64278;45.642;13.756;2023-02-03T02:53:10;9.27;;;8.52;;
15608;SDS011;64278;45.642;13.756;2023-02-03T02:55:37;9.80;;;8.90;;
15608;SDS011;64278;45.642;13.756;2023-02-03T02:58:06;8.85;;;8.15;;
15608;SDS011;64278;45.642;13.756;2023-02-03T03:00:35;9.65;;;8.80;;
15608;SDS011;64278;45.642;13.756;2023-02-03T03:03:11;9.38;;;8.68;;
15608;SDS011;64278;45.642;13.756;2023-02-03T03:05:38;8.52;;;7.82;;
15608;SDS011;64278;45.642;13.756;2023-02-03T03:08:06;9.90;;;9.13;;
15608;SDS011;64278;45.642;13.756;2023-02-03T03:10:36;8.90;;;8.20;;
15608;SDS011;64278;45.642;13.756;2023-02-03T03:13:06;8.00;;;7.30;;
15608;SDS011;64278;45.642;13.756;2023-02-03T03:15:35;9.63;;;8.75;;
15608;SDS011;64278;45.642;13.756;2023-02-03T03:18:04;8.80;;;8.00;;
15608;SDS011;64278;45.642;13.756;2023-02-03T03:20:35;9.40;;;8.50;;
15608;SDS011;64278;45.642;13.756;2023-02-03T03:23:07;8.68;;;7.90;;
15608;SDS011;64278;45.642;13.756;2023-02-03T03:25:48;8.82;;;8.13;;
15608;SDS011;64278;45.642;13.756;2023-02-03T03:28:24;7.93;;;7.22;;
15608;SDS011;64278;45.642;13.756;2023-02-03T03:30:59;8.02;;;7.38;;
15608;SDS011;64278;45.642;13.756;2023-02-03T03:33:25;7.22;;;6.63;;
15608;SDS011;64278;45.642;13.756;2023-02-03T03:35:56;7.97;;;7.38;;
15608;SDS011;64278;45.642;13.756;2023-02-03T03:38:54;8.63;;;7.82;;
15608;SDS011;64278;45.642;13.756;2023-02-03T03:41:42;7.93;;;7.22;;
15608;SDS011;64278;45.642;13.756;2023-02-03T03:44:20;8.88;;;8.00;;
15608;SDS011;64278;45.642;13.756;2023-02-03T03:46:52;7.55;;;6.95;;
15608;SDS011;64278;45.642;13.756;2023-02-03T03:49:25;7.95;;;7.30;;
15608;SDS011;64278;45.642;13.756;2023-02-03T03:51:54;8.23;;;7.53;;
15608;SDS011;64278;45.642;13.756;2023-02-03T03:54:24;8.25;;;7.55;;
15608;SDS011;64278;45.642;13.756;2023-02-03T03:59:27;7.43;;;6.82;;
15608;SDS011;64278;45.642;13.756;2023-02-03T04:01:55;7.97;;;7.38;;
15608;SDS011;64278;45.642;13.756;2023-02-03T04:04:22;7.18;;;6.63;;
15608;SDS011;64278;45.642;13.756;2023-02-03T04:06:51;7.60;;;6.97;;
15608;SDS011;64278;45.642;13.756;2023-02-03T04:09:17;8.20;;;7.50;;
15608;SDS011;64278;45.642;13.756;2023-02-03T04:11:43;8.10;;;7.40;;
15608;SDS011;64278;45.642;13.756;2023-02-03T04:14:27;8.05;;;7.35;;
15608;SDS011;64278;45.642;13.756;2023-02-03T04:16:54;7.75;;;7.15;;
15608;SDS011;64278;45.642;13.756;2023-02-03T04:19:20;7.47;;;6.63;;
15608;SDS011;64278;45.642;13.756;2023-02-03T04:21:46;7.28;;;6.68;;
15608;SDS011;64278;45.642;13.756;2023-02-03T04:24:12;7.88;;;7.18;;
15608;SDS011;64278;45.642;13.756;2023-02-03T04:26:38;8.02;;;7.18;;
15608;SDS011;64278;45.642;13.756;2023-02-03T04:29:03;6.97;;;6.38;;
15608;SDS011;64278;45.642;13.756;2023-02-03T04:31:29;6.90;;;6.40;;
15608;SDS011;64278;45.642;13.756;2023-02-03T04:33:55;6.80;;;6.30;;
15608;SDS011;64278;45.642;13.756;2023-02-03T04:36:20;6.68;;;6.18;;
15608;SDS011;64278;45.642;13.756;2023-02-03T04:38:49;7.20;;;6.60;;
15608;SDS011;64278;45.642;13.756;2023-02-03T04:41:15;7.10;;;6.57;;
15608;SDS011;64278;45.642;13.756;2023-02-03T04:43:41;6.78;;;6.28;;
15608;SDS011;64278;45.642;13.756;2023-02-03T04:46:07;7.00;;;6.40;;
15608;SDS011;64278;45.642;13.756;2023-02-03T04:48:34;7.63;;;7.03;;
15608;SDS011;64278;45.642;13.756;2023-02-03T04:51:04;7.30;;;6.70;;
15608;SDS011;64278;45.642;13.756;2023-02-03T04:53:31;6.57;;;6.07;;
15608;SDS011;64278;45.642;13.756;2023-02-03T04:55:57;6.55;;;6.03;;
15608;SDS011;64278;45.642;13.756;2023-02-03T04:58:23;7.00;;;6.45;;
15608;SDS011;64278;45.642;13.756;2023-02-03T05:00:50;6.68;;;6.07;;
15608;SDS011;64278;45.642;13.756;2023-02-03T05:03:16;6.95;;;6.35;;
15608;SDS011;64278;45.642;13.756;2023-02-03T05:05:42;6.85;;;6.25;;
15608;SDS011;64278;45.642;13.756;2023-02-03T05:08:08;6.70;;;6.20;;
15608;SDS011;64278;45.642;13.756;2023-02-03T05:10:34;6.70;;;6.10;;
15608;SDS011;64278;45.642;13.756;2023-02-03T05:12:59;6.25;;;5.75;;
15608;SDS011;64278;45.642;13.756;2023-02-03T05:15:25;7.32;;;6.80;;
15608;SDS011;64278;45.642;13.756;2023-02-03T05:17:51;6.90;;;6.38;;
15608;SDS011;64278;45.642;13.756;2023-02-03T05:20:18;6.88;;;6.38;;
15608;SDS011;64278;45.642;13.756;2023-02-03T05:22:44;6.75;;;6.25;;
15608;SDS011;64278;45.642;13.756;2023-02-03T05:25:09;6.00;;;5.50;;
15608;SDS011;64278;45.642;13.756;2023-02-03T05:27:39;6.60;;;6.10;;
15608;SDS011;64278;45.642;13.756;2023-02-03T05:30:06;6.88;;;6.15;;
15608;SDS011;64278;45.642;13.756;2023-02-03T05:32:32;6.72;;;6.22;;
15608;SDS011;64278;45.642;13.756;2023-02-03T05:34:58;6.10;;;5.60;;
15608;SDS011;64278;45.642;13.756;2023-02-03T05:37:24;5.70;;;5.30;;
15608;SDS011;64278;45.642;13.756;2023-02-03T05:39:49;7.00;;;6.40;;
15608;SDS011;64278;45.642;13.756;2023-02-03T05:42:15;6.50;;;5.90;;
15608;SDS011;64278;45.642;13.756;2023-02-03T05:44:41;6.78;;;6.28;;
15608;SDS011;64278;45.642;13.756;2023-02-03T05:47:06;5.88;;;5.45;;
15608;SDS011;64278;45.642;13.756;2023-02-03T05:49:32;6.47;;;5.97;;
15608;SDS011;64278;45.642;13.756;2023-02-03T05:51:58;6.28;;;5.78;;
15608;SDS011;64278;45.642;13.756;2023-02-03T05:54:23;6.03;;;5.63;;
15608;SDS011;64278;45.642;13.756;2023-02-03T05:56:49;5.97;;;5.47;;
15608;SDS011;64278;45.642;13.756;2023-02-03T05:59:15;5.85;;;5.35;;
15608;SDS011;64278;45.642;13.756;2023-02-03T06:01:41;6.07;;;5.57;;
15608;SDS011;64278;45.642;13.756;2023-02-03T06:04:07;5.90;;;5.40;;
15608;SDS011;64278;45.642;13.756;2023-02-03T06:06:32;6.05;;;5.57;;
15608;SDS011;64278;45.642;13.756;2023-02-03T06:08:59;6.00;;;5.55;;
15608;SDS011;64278;45.642;13.756;2023-02-03T06:11:26;5.90;;;5.40;;
15608;SDS011;64278;45.642;13.756;2023-02-03T06:13:52;6.50;;;6.00;;
15608;SDS011;64278;45.642;13.756;2023-02-03T06:16:18;6.38;;;5.80;;
15608;SDS011;64278;45.642;13.756;2023-02-03T06:18:44;6.15;;;5.65;;
15608;SDS011;64278;45.642;13.756;2023-02-03T06:21:10;5.40;;;5.00;;
15608;SDS011;64278;45.642;13.756;2023-02-03T06:23:36;6.20;;;5.70;;
15608;SDS011;64278;45.642;13.756;2023-02-03T06:26:01;6.93;;;6.32;;
15608;SDS011;64278;45.642;13.756;2023-02-03T06:28:27;6.35;;;5.85;;
15608;SDS011;64278;45.642;13.756;2023-02-03T06:30:54;5.68;;;5.28;;
15608;SDS011;64278;45.642;13.756;2023-02-03T06:33:19;6.47;;;5.97;;
15608;SDS011;64278;45.642;13.756;2023-02-03T06:35:45;5.93;;;5.43;;
15608;SDS011;64278;45.642;13.756;2023-02-03T06:38:11;5.88;;;5.38;;
15608;SDS011;64278;45.642;13.756;2023-02-03T06:40:36;5.95;;;5.45;;
15608;SDS011;64278;45.642;13.756;2023-02-03T06:43:02;6.25;;;5.75;;
15608;SDS011;64278;45.642;13.756;2023-02-03T06:45:27;6.20;;;5.70;;
15608;SDS011;64278;45.642;13.756;2023-02-03T06:47:53;5.70;;;5.30;;
15608;SDS011;64278;45.642;13.756;2023-02-03T06:50:19;5.57;;;5.18;;
15608;SDS011;64278;45.642;13.756;2023-02-03T06:52:44;5.95;;;5.32;;
15608;SDS011;64278;45.642;13.756;2023-02-03T06:55:10;5.72;;;5.30;;
15608;SDS011;64278;45.642;13.756;2023-02-03T06:57:41;5.63;;;5.20;;
15608;SDS011;64278;45.642;13.756;2023-02-03T07:00:08;6.38;;;5.88;;
15608;SDS011;64278;45.642;13.756;2023-02-03T07:02:34;5.93;;;5.43;;
15608;SDS011;64278;45.642;13.756;2023-02-03T07:05:00;5.55;;;5.15;;
15608;SDS011;64278;45.642;13.756;2023-02-03T07:07:26;6.55;;;6.05;;
15608;SDS011;64278;45.642;13.756;2023-02-03T07:09:51;5.95;;;5.45;;
15608;SDS011;64278;45.642;13.756;2023-02-03T07:12:17;5.68;;;5.18;;
15608;SDS011;64278;45.642;13.756;2023-02-03T07:14:43;6.13;;;5.63;;
15608;SDS011;64278;45.642;13.756;2023-02-03T07:17:08;6.32;;;5.80;;
15608;SDS011;64278;45.642;13.756;2023-02-03T07:19:34;6.88;;;6.28;;
15608;SDS011;64278;45.642;13.756;2023-02-03T07:21:59;6.40;;;5.90;;
15608;SDS011;64278;45.642;13.756;2023-02-03T07:24:25;6.32;;;5.82;;
15608;SDS011;64278;45.642;13.756;2023-02-03T07:26:51;6.30;;;5.70;;
15608;SDS011;64278;45.642;13.756;2023-02-03T07:29:17;6.45;;;5.82;;
15608;SDS011;64278;45.642;13.756;2023-02-03T07:31:43;6.43;;;5.93;;
15608;SDS011;64278;45.642;13.756;2023-02-03T07:34:08;6.72;;;6.22;;
15608;SDS011;64278;45.642;13.756;2023-02-03T07:36:34;6.78;;;6.25;;
15608;SDS011;64278;45.642;13.756;2023-02-03T07:39:00;5.85;;;5.38;;
15608;SDS011;64278;45.642;13.756;2023-02-03T07:41:25;6.57;;;5.90;;
15608;SDS011;64278;45.642;13.756;2023-02-03T07:43:51;5.90;;;5.40;;
15608;SDS011;64278;45.642;13.756;2023-02-03T07:46:17;6.68;;;6.13;;
15608;SDS011;64278;45.642;13.756;2023-02-03T07:48:42;6.20;;;5.60;;
15608;SDS011;64278;45.642;13.756;2023-02-03T07:51:08;6.57;;;5.97;;
15608;SDS011;64278;45.642;13.756;2023-02-03T07:53:33;5.95;;;5.45;;
15608;SDS011;64278;45.642;13.756;2023-02-03T07:56:00;7.03;;;6.43;;
15608;SDS011;64278;45.642;13.756;2023-02-03T07:58:26;6.78;;;6.18;;
15608;SDS011;64278;45.642;13.756;2023-02-03T08:00:52;6.93;;;6.30;;
15608;SDS011;64278;45.642;13.756;2023-02-03T08:03:18;8.20;;;7.05;;
15608;SDS011;64278;45.642;13.756;2023-02-03T08:05:43;7.72;;;6.18;;
15608;SDS011;64278;45.642;13.756;2023-02-03T08:08:09;8.45;;;7.03;;
15608;SDS011;64278;45.642;13.756;2023-02-03T08:10:34;7.45;;;6.75;;
15608;SDS011;64278;45.642;13.756;2023-02-03T08:13:00;7.22;;;6.63;;
15608;SDS011;64278;45.642;13.756;2023-02-03T08:15:26;8.90;;;6.78;;
15608;SDS011;64278;45.642;13.756;2023-02-03T08:17:51;8.23;;;7.43;;
15608;SDS011;64278;45.642;13.756;2023-02-03T08:20:17;7.22;;;6.63;;
15608;SDS011;64278;45.642;13.756;2023-02-03T08:22:43;7.68;;;6.97;;
15608;SDS011;64278;45.642;13.756;2023-02-03T08:25:09;8.07;;;7.37;;
15608;SDS011;64278;45.642;13.756;2023-02-03T08:27:35;9.35;;;8.35;;
15608;SDS011;64278;45.642;13.756;2023-02-03T08:30:02;8.35;;;7.47;;
15608;SDS011;64278;45.642;13.756;2023-02-03T08:32:28;7.82;;;7.00;;
15608;SDS011;64278;45.642;13.756;2023-02-03T08:34:54;8.45;;;7.65;;
15608;SDS011;64278;45.642;13.756;2023-02-03T08:37:20;8.30;;;7.55;;
15608;SDS011;64278;45.642;13.756;2023-02-03T08:39:48;8.52;;;7.60;;
15608;SDS011;64278;45.642;13.756;2023-02-03T08:42:15;8.55;;;7.75;;
15608;SDS011;64278;45.642;13.756;2023-02-03T08:44:41;8.50;;;7.55;;
15608;SDS011;64278;45.642;13.756;2023-02-03T08:47:08;9.15;;;8.25;;
15608;SDS011;64278;45.642;13.756;2023-02-03T08:49:34;7.60;;;6.93;;
15608;SDS011;64278;45.642;13.756;2023-02-03T08:52:03;8.95;;;7.93;;
15608;SDS011;64278;45.642;13.756;2023-02-03T08:54:30;8.52;;;7.72;;
15608;SDS011;64278;45.642;13.756;2023-02-03T08:56:56;8.00;;;7.20;;
15608;SDS011;64278;45.642;13.756;2023-02-03T08:59:22;8.73;;;7.85;;
15608;SDS011;64278;45.642;13.756;2023-02-03T09:01:48;9.70;;;7.93;;
15608;SDS011;64278;45.642;13.756;2023-02-03T09:04:14;7.90;;;7.10;;
15608;SDS011;64278;45.642;13.756;2023-02-03T09:06:43;9.05;;;8.15;;
15608;SDS011;64278;45.642;13.756;2023-02-03T09:09:11;8.75;;;7.22;;
15608;SDS011;64278;45.642;13.756;2023-02-03T09:11:37;8.75;;;7.88;;
15608;SDS011;64278;45.642;13.756;2023-02-03T09:14:05;26.77;;;23.67;;
15608;SDS011;64278;45.642;13.756;2023-02-03T09:16:31;29.45;;;26.40;;
15608;SDS011;64278;45.642;13.756;2023-02-03T09:18:57;32.38;;;29.05;;
15608;SDS011;64278;45.642;13.756;2023-02-03T09:21:22;31.23;;;28.08;;
15608;SDS011;64278;45.642;13.756;2023-02-03T09:23:48;28.13;;;25.23;;
15608;SDS011;64278;45.642;13.756;2023-02-03T09:26:14;34.65;;;31.02;;
15608;SDS011;64278;45.642;13.756;2023-02-03T09:28:41;29.30;;;26.17;;
15608;SDS011;64278;45.642;13.756;2023-02-03T09:31:11;34.45;;;30.75;;
15608;SDS011;64278;45.642;13.756;2023-02-03T09:33:38;39.95;;;34.78;;
15608;SDS011;64278;45.642;13.756;2023-02-03T09:36:05;39.95;;;34.67;;
15608;SDS011;64278;45.642;13.756;2023-02-03T09:38:31;39.88;;;35.53;;
15608;SDS011;64278;45.642;13.756;2023-02-03T09:41:12;40.05;;;35.90;;
15608;SDS011;64278;45.642;13.756;2023-02-03T09:44:08;39.80;;;35.42;;
15608;SDS011;64278;45.642;13.756;2023-02-03T09:46:55;38.25;;;34.15;;
15608;SDS011;64278;45.642;13.756;2023-02-03T09:49:32;40.22;;;35.50;;
15608;SDS011;64278;45.642;13.756;2023-02-03T09:52:07;38.78;;;34.65;;
15608;SDS011;64278;45.642;13.756;2023-02-03T09:54:55;41.72;;;37.05;;
15608;SDS011;64278;45.642;13.756;2023-02-03T09:57:30;39.28;;;35.03;;
15608;SDS011;64278;45.642;13.756;2023-02-03T10:00:02;40.40;;;35.08;;
15608;SDS011;64278;45.642;13.756;2023-02-03T10:05:42;44.90;;;40.03;;
15608;SDS011;64278;45.642;13.756;2023-02-03T10:19:48;49.67;;;41.70;;
15608;SDS011;64278;45.642;13.756;2023-02-03T10:22:19;49.25;;;41.90;;
15608;SDS011;64278;45.642;13.756;2023-02-03T10:24:51;52.42;;;43.03;;
15608;SDS011;64278;45.642;13.756;2023-02-03T10:27:20;49.57;;;43.47;;
15608;SDS011;64278;45.642;13.756;2023-02-03T10:30:32;51.73;;;44.93;;
15608;SDS011;64278;45.642;13.756;2023-02-03T10:32:47;53.30;;;44.30;;
15608;SDS011;64278;45.642;13.756;2023-02-03T10:35:17;56.77;;;46.33;;
15608;SDS011;64278;45.642;13.756;2023-02-03T10:37:44;41.97;;;36.93;;
15608;SDS011;64278;45.642;13.756;2023-02-03T10:40:14;43.33;;;34.93;;
15608;SDS011;64278;45.642;13.756;2023-02-03T10:42:45;37.83;;;32.97;;
15608;SDS011;64278;45.642;13.756;2023-02-03T10:45:30;40.30;;;31.88;;
15608;SDS011;64278;45.642;13.756;2023-02-03T10:48:01;34.13;;;29.27;;
15608;SDS011;64278;45.642;13.756;2023-02-03T10:50:28;33.08;;;26.90;;
15608;SDS011;64278;45.642;13.756;2023-02-03T10:56:01;30.25;;;26.45;;
15608;SDS011;64278;45.642;13.756;2023-02-03T10:58:49;28.10;;;25.15;;
15608;SDS011;64278;45.642;13.756;2023-02-03T11:01:20;26.77;;;23.27;;
15608;SDS011;64278;45.642;13.756;2023-02-03T11:03:59;27.42;;;24.35;;
15608;SDS011;64278;45.642;13.756;2023-02-03T11:06:28;22.73;;;20.40;;
15608;SDS011;64278;45.642;13.756;2023-02-03T11:08:55;25.35;;;20.33;;
15608;SDS011;64278;45.642;13.756;2023-02-03T11:13:51;24.35;;;21.63;;
15608;SDS011;64278;45.642;13.756;2023-02-03T11:16:34;23.42;;;20.70;;
15608;SDS011;64278;45.642;13.756;2023-02-03T11:21:31;18.88;;;16.88;;
15608;SDS011;64278;45.642;13.756;2023-02-03T11:26:50;19.35;;;17.30;;
15608;SDS011;64278;45.642;13.756;2023-02-03T11:29:27;20.88;;;17.33;;
15608;SDS011;64278;45.642;13.756;2023-02-03T11:31:56;17.75;;;15.82;;
15608;SDS011;64278;45.642;13.756;2023-02-03T11:34:28;17.13;;;15.38;;
15608;SDS011;64278;45.642;13.756;2023-02-03T11:39:49;16.38;;;14.68;;
15608;SDS011;64278;45.642;13.756;2023-02-03T11:42:22;15.23;;;13.70;;
15608;SDS011;64278;45.642;13.756;2023-02-03T11:44:48;18.85;;;14.82;;
15608;SDS011;64278;45.642;13.756;2023-02-03T11:47:15;18.65;;;14.13;;
15608;SDS011;64278;45.642;13.756;2023-02-03T11:49:52;21.10;;;14.65;;
15608;SDS011;64278;45.642;13.756;2023-02-03T11:58:13;18.73;;;13.93;;
15608;SDS011;64278;45.642;13.756;2023-02-03T12:17:40;14.40;;;11.30;;
15608;SDS011;64278;45.642;13.756;2023-02-03T12:30:32;12.88;;;10.48;;
15608;SDS011;64278;45.642;13.756;2023-02-03T12:33:03;14.43;;;11.35;;
15608;SDS011;64278;45.642;13.756;2023-02-03T12:35:45;13.32;;;12.13;;
15608;SDS011;64278;45.642;13.756;2023-02-03T12:38:21;13.70;;;12.18;;
15608;SDS011;64278;45.642;13.756;2023-02-03T12:41:12;15.00;;;12.93;;
15608;SDS011;64278;45.642;13.756;2023-02-03T12:47:05;12.02;;;10.75;;
15608;SDS011;64278;45.642;13.756;2023-02-03T12:52:20;12.25;;;11.05;;
15608;SDS011;64278;45.642;13.756;2023-02-03T12:58:03;9.25;;;8.45;;
15608;SDS011;64278;45.642;13.756;2023-02-03T13:00:51;9.32;;;8.40;;
15608;SDS011;64278;45.642;13.756;2023-02-03T13:11:47;9.75;;;8.07;;
15608;SDS011;64278;45.642;13.756;2023-02-03T13:17:02;8.30;;;7.50;;
15608;SDS011;64278;45.642;13.756;2023-02-03T13:19:49;7.43;;;6.72;;
15608;SDS011;64278;45.642;13.756;2023-02-03T13:22:17;9.30;;;8.23;;
15608;SDS011;64278;45.642;13.756;2023-02-03T13:24:49;8.63;;;7.72;;
15608;SDS011;64278;45.642;13.756;2023-02-03T13:28:33;8.70;;;7.88;;
15608;SDS011;64278;45.642;13.756;2023-02-03T13:41:46;6.63;;;6.03;;
15608;SDS011;64278;45.642;13.756;2023-02-03T13:44:14;6.55;;;5.95;;
15608;SDS011;64278;45.642;13.756;2023-02-03T13:46:45;6.88;;;6.28;;
15608;SDS011;64278;45.642;13.756;2023-02-03T13:49:16;9.00;;;6.32;;
15608;SDS011;64278;45.642;13.756;2023-02-03T13:52:27;6.70;;;6.10;;
15608;SDS011;64278;45.642;13.756;2023-02-03T13:55:19;5.85;;;5.35;;
15608;SDS011;64278;45.642;13.756;2023-02-03T13:57:54;6.20;;;5.70;;
15608;SDS011;64278;45.642;13.756;2023-02-03T14:03:20;6.40;;;5.65;;
15608;SDS011;64278;45.642;13.756;2023-02-03T14:06:03;6.32;;;5.72;;
15608;SDS011;64278;45.642;13.756;2023-02-03T14:16:40;6.28;;;5.68;;
15608;SDS011;64278;45.642;13.756;2023-02-03T14:22:00;6.35;;;5.40;;
15608;SDS011;64278;45.642;13.756;2023-02-03T14:24:29;7.80;;;5.60;;
15608;SDS011;64278;45.642;13.756;2023-02-03T14:26:56;6.50;;;5.90;;
15608;SDS011;64278;45.642;13.756;2023-02-03T14:32:00;6.50;;;5.75;;
15608;SDS011;64278;45.642;13.756;2023-02-03T14:34:52;7.78;;;5.88;;
15608;SDS011;64278;45.642;13.756;2023-02-03T14:58:59;6.07;;;5.47;;
15608;SDS011;64278;45.642;13.756;2023-02-03T15:06:47;5.28;;;4.88;;
15608;SDS011;64278;45.642;13.756;2023-02-03T15:12:24;5.47;;;4.97;;
15608;SDS011;64278;45.642;13.756;2023-02-03T15:14:51;5.75;;;5.15;;
15608;SDS011;64278;45.642;13.756;2023-02-03T15:17:27;5.88;;;5.38;;
15608;SDS011;64278;45.642;13.756;2023-02-03T15:19:54;6.53;;;5.75;;
15608;SDS011;64278;45.642;13.756;2023-02-03T15:22:21;5.20;;;4.57;;
15608;SDS011;64278;45.642;13.756;2023-02-03T15:24:51;5.18;;;4.68;;
15608;SDS011;64278;45.642;13.756;2023-02-03T15:27:22;6.28;;;5.70;;
15608;SDS011;64278;45.642;13.756;2023-02-03T15:29:50;5.47;;;4.93;;
15608;SDS011;64278;45.642;13.756;2023-02-03T15:32:18;5.68;;;5.22;;
15608;SDS011;64278;45.642;13.756;2023-02-03T15:34:50;5.32;;;4.82;;
15608;SDS011;64278;45.642;13.756;2023-02-03T15:37:51;5.97;;;5.38;;
15608;SDS011;64278;45.642;13.756;2023-02-03T15:40:18;5.55;;;5.05;;
15608;SDS011;64278;45.642;13.756;2023-02-03T15:42:52;6.90;;;5.30;;
15608;SDS011;64278;45.642;13.756;2023-02-03T15:45:26;5.30;;;4.80;;
15608;SDS011;64278;45.642;13.756;2023-02-03T15:50:55;6.18;;;5.07;;
15608;SDS011;64278;45.642;13.756;2023-02-03T15:53:29;5.43;;;4.93;;
15608;SDS011;64278;45.642;13.756;2023-02-03T15:56:03;5.47;;;4.88;;
15608;SDS011;64278;45.642;13.756;2023-02-03T15:58:43;5.55;;;5.00;;
15608;SDS011;64278;45.642;13.756;2023-02-03T16:01:10;6.05;;;5.50;;
15608;SDS011;64278;45.642;13.756;2023-02-03T16:03:44;5.60;;;5.13;;
15608;SDS011;64278;45.642;13.756;2023-02-03T16:08:54;5.45;;;5.05;;
15608;SDS011;64278;45.642;13.756;2023-02-03T16:14:01;6.15;;;5.55;;
15608;SDS011;64278;45.642;13.756;2023-02-03T16:18:57;6.10;;;5.53;;
15608;SDS011;64278;45.642;13.756;2023-02-03T16:21:28;7.03;;;6.40;;
15608;SDS011;64278;45.642;13.756;2023-02-03T16:23:56;6.97;;;6.28;;
15608;SDS011;64278;45.642;13.756;2023-02-03T16:26:26;6.32;;;5.82;;
15608;SDS011;64278;45.642;13.756;2023-02-03T16:31:53;6.38;;;5.78;;
15608;SDS011;64278;45.642;13.756;2023-02-03T16:34:37;6.57;;;5.97;;
15608;SDS011;64278;45.642;13.756;2023-02-03T16:37:23;6.22;;;5.72;;
15608;SDS011;64278;45.642;13.756;2023-02-03T16:40:13;7.72;;;6.57;;
15608;SDS011;64278;45.642;13.756;2023-02-03T16:43:02;6.65;;;5.95;;
15608;SDS011;64278;45.642;13.756;2023-02-03T16:45:50;6.55;;;5.93;;
15608;SDS011;64278;45.642;13.756;2023-02-03T16:48:38;6.15;;;5.53;;
15608;SDS011;64278;45.642;13.756;2023-02-03T16:51:22;7.15;;;5.90;;
15608;SDS011;64278;45.642;13.756;2023-02-03T16:53:48;6.85;;;6.15;;
15608;SDS011;64278;45.642;13.756;2023-02-03T16:56:14;6.32;;;5.72;;
15608;SDS011;64278;45.642;13.756;2023-02-03T16:58:42;7.10;;;6.40;;
15608;SDS011;64278;45.642;13.756;2023-02-03T17:01:09;7.90;;;5.70;;
15608;SDS011;64278;45.642;13.756;2023-02-03T17:03:35;6.07;;;5.50;;
15608;SDS011;64278;45.642;13.756;2023-02-03T17:06:04;6.45;;;5.82;;
15608;SDS011;64278;45.642;13.756;2023-02-03T17:08:32;6.47;;;5.88;;
15608;SDS011;64278;45.642;13.756;2023-02-03T17:11:06;6.00;;;5.40;;
15608;SDS011;64278;45.642;13.756;2023-02-03T17:13:42;6.43;;;5.82;;
15608;SDS011;64278;45.642;13.756;2023-02-03T17:16:09;6.35;;;5.78;;
15608;SDS011;64278;45.642;13.756;2023-02-03T17:18:38;6.20;;;5.60;;
15608;SDS011;64278;45.642;13.756;2023-02-03T17:21:06;6.63;;;6.03;;
15608;SDS011;64278;45.642;13.756;2023-02-03T17:23:33;6.70;;;6.10;;
15608;SDS011;64278;45.642;13.756;2023-02-03T17:25:59;5.93;;;5.43;;
15608;SDS011;64278;45.642;13.756;2023-02-03T17:28:25;6.53;;;6.03;;
15608;SDS011;64278;45.642;13.756;2023-02-03T17:31:00;6.55;;;5.93;;
15608;SDS011;64278;45.642;13.756;2023-02-03T17:33:28;6.35;;;5.75;;
15608;SDS011;64278;45.642;13.756;2023-02-03T17:36:13;6.05;;;5.50;;
15608;SDS011;64278;45.642;13.756;2023-02-03T17:38:44;8.43;;;6.15;;
15608;SDS011;64278;45.642;13.756;2023-02-03T17:41:14;6.30;;;5.70;;
15608;SDS011;64278;45.642;13.756;2023-02-03T17:43:44;6.50;;;5.78;;
15608;SDS011;64278;45.642;13.756;2023-02-03T17:46:12;7.38;;;6.35;;
15608;SDS011;64278;45.642;13.756;2023-02-03T17:48:40;6.53;;;5.75;;
15608;SDS011;64278;45.642;13.756;2023-02-03T17:51:24;6.22;;;5.05;;
15608;SDS011;64278;45.642;13.756;2023-02-03T17:53:50;6.78;;;6.10;;
15608;SDS011;64278;45.642;13.756;2023-02-03T17:56:19;6.00;;;5.40;;
15608;SDS011;64278;45.642;13.756;2023-02-03T17:58:56;7.03;;;5.63;;
15608;SDS011;64278;45.642;13.756;2023-02-03T18:01:24;6.30;;;5.80;;
15608;SDS011;64278;45.642;13.756;2023-02-03T18:03:51;5.57;;;5.07;;
15608;SDS011;64278;45.642;13.756;2023-02-03T18:06:19;6.43;;;5.82;;
15608;SDS011;64278;45.642;13.756;2023-02-03T18:08:46;7.70;;;7.00;;
15608;SDS011;64278;45.642;13.756;2023-02-03T18:11:13;6.00;;;5.50;;
15608;SDS011;64278;45.642;13.756;2023-02-03T18:13:41;5.70;;;5.20;;
15608;SDS011;64278;45.642;13.756;2023-02-03T18:16:09;6.07;;;5.53;;
15608;SDS011;64278;45.642;13.756;2023-02-03T18:18:44;6.40;;;5.32;;
15608;SDS011;64278;45.642;13.756;2023-02-03T18:21:10;6.88;;;6.20;;
15608;SDS011;64278;45.642;13.756;2023-02-03T18:23:38;6.47;;;5.55;;
15608;SDS011;64278;45.642;13.756;2023-02-03T18:26:04;5.72;;;5.22;;
15608;SDS011;64278;45.642;13.756;2023-02-03T18:28:31;5.80;;;5.30;;
15608;SDS011;64278;45.642;13.756;2023-02-03T18:30:58;6.22;;;5.65;;
15608;SDS011;64278;45.642;13.756;2023-02-03T18:33:26;6.97;;;6.28;;
15608;SDS011;64278;45.642;13.756;2023-02-03T18:35:54;5.60;;;5.10;;